createdAt,value
2022-09-15T00:01:32.874Z,98027.19
2022-09-15T00:03:59.438Z,98024.38
2022-09-15T00:06:25.951Z,98024.34
2022-09-15T00:08:52.476Z,98022.41
2022-09-15T00:11:22.115Z,98015.69
2022-09-15T00:13:49.435Z,98018.78
2022-09-15T00:16:17.763Z,98019.13
2022-09-15T00:18:46.212Z,98017.13
2022-09-15T00:21:16.907Z,98015.97
2022-09-15T00:23:43.956Z,98014.81
2022-09-15T00:26:12.635Z,98027.31
2022-09-15T00:28:40.116Z,98019.84
2022-09-15T00:31:08.660Z,98008.53
2022-09-15T00:33:35.755Z,98014.00
2022-09-15T00:36:05.797Z,98016.31
2022-09-15T00:38:33.751Z,98011.19
2022-09-15T00:41:01.328Z,98015.47
2022-09-15T00:43:44.252Z,98012.72
2022-09-15T00:46:11.869Z,98018.94
2022-09-15T00:48:44.135Z,98019.63
2022-09-15T00:51:16.614Z,98024.63
2022-09-15T00:53:46.500Z,98021.44
2022-09-15T00:56:15.887Z,98025.31
2022-09-15T00:58:46.265Z,98026.06
2022-09-15T01:01:14.294Z,98035.81
2022-09-15T01:03:40.951Z,98030.72
2022-09-15T01:06:12.056Z,98037.34
2022-09-15T01:08:46.008Z,98041.97
2022-09-15T01:11:12.573Z,98044.72
2022-09-15T01:13:39.186Z,98039.19
2022-09-15T01:16:15.283Z,98041.50
2022-09-15T01:18:57.694Z,98036.81
2022-09-15T01:21:34.254Z,98043.44
2022-09-15T01:24:40.440Z,98033.66
2022-09-15T01:27:40.896Z,98030.56
2022-09-15T01:30:15.191Z,98035.31
2022-09-15T01:32:54.044Z,98027.91
2022-09-15T01:35:29.079Z,98016.56
2022-09-15T01:38:09.058Z,98013.03
2022-09-15T01:40:40.691Z,98008.72
2022-09-15T01:43:10.240Z,98010.31
2022-09-15T01:45:41.853Z,98014.63
2022-09-15T01:48:09.360Z,98012.31
2022-09-15T01:50:44.240Z,98011.19
2022-09-15T01:53:15.487Z,98007.28
2022-09-15T01:55:46.605Z,98012.34
2022-09-15T01:58:13.144Z,98019.72
2022-09-15T02:00:44.837Z,98008.81
2022-09-15T02:03:16.352Z,98011.16
2022-09-15T02:05:49.023Z,98002.56
2022-09-15T02:08:23.122Z,98010.00
2022-09-15T02:10:56.289Z,98007.16
2022-09-15T02:13:30.179Z,98009.94
2022-09-15T02:16:00.396Z,98007.22
2022-09-15T02:18:37.160Z,98002.06
2022-09-15T02:21:09.264Z,97997.78
2022-09-15T02:23:39.258Z,97997.38
2022-09-15T02:26:10.822Z,97992.25
2022-09-15T02:28:39.332Z,97993.03
2022-09-15T02:31:11.267Z,97995.41
2022-09-15T02:33:44.540Z,97996.13
2022-09-15T02:36:13.468Z,97994.63
2022-09-15T02:38:46.949Z,97986.44
2022-09-15T02:41:13.540Z,97990.75
2022-09-15T02:43:44.992Z,97995.03
2022-09-15T02:46:13.066Z,97990.31
2022-09-15T02:48:39.575Z,97993.03
2022-09-15T02:51:06.522Z,97990.31
2022-09-15T02:53:33.020Z,97994.63
2022-09-15T02:55:59.914Z,97997.28
2022-09-15T02:58:26.407Z,97991.84
2022-09-15T03:00:53.064Z,97999.66
2022-09-15T03:03:21.185Z,98006.28
2022-09-15T03:05:47.982Z,98011.69
2022-09-15T03:08:14.599Z,98008.97
2022-09-15T03:10:41.132Z,98016.72
2022-09-15T03:13:07.646Z,98020.25
2022-09-15T03:15:34.169Z,98019.47
2022-09-15T03:18:02.062Z,98028.00
2022-09-15T03:20:29.935Z,98024.84
2022-09-15T03:22:56.510Z,98025.22
2022-09-15T03:25:23.030Z,98027.94
2022-09-15T03:27:49.635Z,98035.72
2022-09-15T03:30:16.149Z,98024.84
2022-09-15T03:32:42.774Z,98024.84
2022-09-15T03:35:10.040Z,98025.28
2022-09-15T03:37:37.882Z,98029.53
2022-09-15T03:40:05.483Z,98023.59
2022-09-15T03:42:32.095Z,98015.84
2022-09-15T03:44:58.635Z,98027.53
2022-09-15T03:47:25.243Z,98029.09
2022-09-15T03:49:51.732Z,98019.38
2022-09-15T03:52:18.324Z,98026.00
2022-09-15T03:54:48.152Z,98027.94
2022-09-15T03:57:14.652Z,98038.03
2022-09-15T03:59:41.178Z,98034.16
2022-09-15T04:02:08.053Z,98028.69
2022-09-15T04:04:34.691Z,98037.28
2022-09-15T04:07:01.197Z,98045.84
2022-09-15T04:09:28.019Z,98040.34
2022-09-15T04:11:56.066Z,98041.13
2022-09-15T04:14:22.712Z,98034.88
2022-09-15T04:16:49.203Z,98039.53
2022-09-15T04:19:15.794Z,98044.16
2022-09-15T04:21:42.332Z,98044.16
2022-09-15T04:24:08.918Z,98034.78
2022-09-15T04:26:36.768Z,98053.09
2022-09-15T04:29:05.925Z,98051.06
2022-09-15T04:31:33.501Z,98044.00
2022-09-15T04:34:00.516Z,98056.06
2022-09-15T04:36:28.686Z,98063.88
2022-09-15T04:38:55.702Z,98058.81
2022-09-15T04:41:23.072Z,98052.22
2022-09-15T04:43:50.199Z,98055.03
2022-09-15T04:46:18.387Z,98054.59
2022-09-15T04:48:45.784Z,98057.31
2022-09-15T04:51:15.223Z,98054.16
2022-09-15T04:53:42.208Z,98050.25
2022-09-15T04:56:10.861Z,98057.25
2022-09-15T04:58:38.710Z,98055.63
2022-09-15T05:01:10.087Z,98060.63
2022-09-15T05:03:38.266Z,98062.91
2022-09-15T05:06:05.961Z,98051.13
2022-09-15T05:08:32.618Z,98053.00
2022-09-15T05:11:00.302Z,98056.53
2022-09-15T05:13:27.130Z,98050.19
2022-09-15T05:15:53.827Z,98052.50
2022-09-15T05:18:20.467Z,98058.97
2022-09-15T05:20:48.349Z,98062.06
2022-09-15T05:23:14.937Z,98073.63
2022-09-15T05:25:41.422Z,98071.28
2022-09-15T05:28:08.028Z,98073.16
2022-09-15T05:30:39.551Z,98085.22
2022-09-15T05:33:06.237Z,98077.03
2022-09-15T05:35:32.765Z,98085.66
2022-09-15T05:38:00.700Z,98079.75
2022-09-15T05:40:27.428Z,98086.84
2022-09-15T05:42:53.950Z,98087.28
2022-09-15T05:45:20.446Z,98083.88
2022-09-15T05:47:46.957Z,98096.44
2022-09-15T05:50:13.722Z,98099.28
2022-09-15T05:52:40.231Z,98101.22
2022-09-15T05:55:08.768Z,98094.63
2022-09-15T05:57:35.256Z,98098.31
2022-09-15T06:00:02.452Z,98096.44
2022-09-15T06:02:29.030Z,98092.56
2022-09-15T06:04:55.589Z,98092.25
2022-09-15T06:07:22.192Z,98099.63
2022-09-15T06:09:48.716Z,98103.88
2022-09-15T06:12:16.700Z,98101.94
2022-09-15T06:14:43.272Z,98095.44
2022-09-15T06:17:09.757Z,98101.84
2022-09-15T06:19:36.252Z,98094.91
2022-09-15T06:22:02.905Z,98095.03
2022-09-15T06:24:29.415Z,98106.72
2022-09-15T06:26:55.936Z,98106.47
2022-09-15T06:29:23.795Z,98109.38
2022-09-15T06:31:50.354Z,98110.78
2022-09-15T06:34:16.931Z,98112.72
2022-09-15T06:36:43.467Z,98115.97
2022-09-15T06:39:10.200Z,98115.72
2022-09-15T06:42:00.691Z,98126.09
2022-09-15T06:44:24.635Z,98119.41
2022-09-15T06:46:51.110Z,98116.09
2022-09-15T06:49:17.726Z,98117.81
2022-09-15T06:51:44.598Z,98115.56
2022-09-15T06:54:11.095Z,98113.38
2022-09-15T06:56:39.330Z,98113.84
2022-09-15T06:59:06.042Z,98110.34
2022-09-15T07:01:34.190Z,98109.56
2022-09-15T07:04:01.745Z,98114.34
2022-09-15T07:06:29.101Z,98124.03
2022-09-15T07:08:55.654Z,98124.88
2022-09-15T07:11:22.150Z,98123.38
2022-09-15T07:13:48.793Z,98128.53
2022-09-15T07:16:16.021Z,98124.22
2022-09-15T07:18:44.089Z,98134.09
2022-09-15T07:21:13.458Z,98126.38
2022-09-15T07:23:40.135Z,98127.28
2022-09-15T07:26:08.907Z,98130.50
2022-09-15T07:28:35.972Z,98139.97
2022-09-15T07:31:03.629Z,98132.56
2022-09-15T07:33:30.177Z,98134.16
2022-09-15T07:35:58.166Z,98144.09
2022-09-15T07:38:24.817Z,98136.94
2022-09-15T07:40:51.325Z,98137.81
2022-09-15T07:43:17.940Z,98138.53
2022-09-15T07:45:44.520Z,98146.25
2022-09-15T07:48:11.065Z,98153.94
2022-09-15T07:50:37.822Z,98152.00
2022-09-15T07:53:05.682Z,98156.91
2022-09-15T07:55:32.659Z,98157.97
2022-09-15T07:57:59.720Z,98153.78
2022-09-15T08:00:26.917Z,98154.97
2022-09-15T08:02:53.575Z,98167.03
2022-09-15T08:05:20.225Z,98163.94
2022-09-15T08:07:46.946Z,98163.34
2022-09-15T08:10:14.949Z,98160.22
2022-09-15T08:12:41.485Z,98164.59
2022-09-15T08:15:08.388Z,98162.91
2022-09-15T08:17:35.017Z,98168.72
2022-09-15T08:20:01.957Z,98171.56
2022-09-15T08:22:28.676Z,98165.81
2022-09-15T08:24:55.269Z,98169.75
2022-09-15T08:27:23.118Z,98176.50
2022-09-15T08:29:49.640Z,98176.16
2022-09-15T08:32:16.217Z,98183.25
2022-09-15T08:34:42.765Z,98184.41
2022-09-15T08:37:09.288Z,98182.78
2022-09-15T08:39:35.780Z,98184.25
2022-09-15T08:42:03.001Z,98188.09
2022-09-15T08:44:40.611Z,98194.31
2022-09-15T08:47:13.608Z,98195.50
2022-09-15T08:49:52.102Z,98196.03
2022-09-15T08:52:23.051Z,98204.31
2022-09-15T08:54:52.987Z,98196.88
2022-09-15T08:57:23.666Z,98196.53
2022-09-15T08:59:52.497Z,98195.06
2022-09-15T09:02:57.530Z,98196.66
2022-09-15T09:05:49.593Z,98188.81
2022-09-15T09:08:35.269Z,98186.41
2022-09-15T09:11:12.141Z,98195.06
2022-09-15T09:13:47.681Z,98204.13
2022-09-15T09:16:32.780Z,98198.25
2022-09-15T09:19:11.161Z,98203.75
2022-09-15T09:21:41.374Z,98198.19
2022-09-15T09:24:15.322Z,98206.03
2022-09-15T09:26:41.894Z,98206.81
2022-09-15T09:29:16.240Z,98209.94
2022-09-15T09:31:47.574Z,98216.16
2022-09-15T09:34:22.716Z,98204.31
2022-09-15T09:36:53.089Z,98205.94
2022-09-15T09:39:19.634Z,98198.03
2022-09-15T09:41:46.196Z,98215.66
2022-09-15T09:44:14.720Z,98203.47
2022-09-15T09:46:41.551Z,98201.81
2022-09-15T09:49:17.249Z,98201.03
2022-09-15T09:51:53.981Z,98204.94
2022-09-15T09:54:22.278Z,98207.28
2022-09-15T09:56:49.910Z,98207.59
2022-09-15T09:59:40.346Z,98202.06
2022-09-15T10:02:18.659Z,98205.28
2022-09-15T10:04:48.213Z,98209.63
2022-09-15T10:07:16.928Z,98203.41
2022-09-15T10:09:53.348Z,98212.81
2022-09-15T10:12:23.679Z,98201.91
2022-09-15T10:14:52.993Z,98208.72
2022-09-15T10:17:22.138Z,98195.03
2022-09-15T10:19:52.620Z,98204.81
2022-09-15T10:22:25.634Z,98213.81
2022-09-15T10:24:52.352Z,98209.97
2022-09-15T10:27:25.882Z,98207.22
2022-09-15T10:29:52.431Z,98211.56
2022-09-15T10:32:25.690Z,98215.09
2022-09-15T10:35:06.377Z,98214.28
2022-09-15T10:37:37.570Z,98218.22
2022-09-15T10:40:20.774Z,98223.78
2022-09-15T10:42:51.461Z,98221.00
2022-09-15T10:45:25.604Z,98216.72
2022-09-15T10:48:31.196Z,98224.94
2022-09-15T10:51:09.673Z,98221.00
2022-09-15T10:53:53.570Z,98219.81
2022-09-15T10:56:28.270Z,98214.69
2022-09-15T10:59:02.667Z,98218.59
2022-09-15T11:01:46.113Z,98225.72
2022-09-15T11:04:38.473Z,98228.88
2022-09-15T11:07:15.349Z,98220.22
2022-09-15T11:09:44.407Z,98226.13
2022-09-15T11:12:30.390Z,98225.34
2022-09-15T11:15:19.402Z,98237.53
2022-09-15T11:17:59.892Z,98232.81
2022-09-15T11:20:41.042Z,98222.19
2022-09-15T11:23:16.875Z,98230.03
2022-09-15T11:25:46.544Z,98228.88
2022-09-15T11:28:19.887Z,98236.34
2022-09-15T11:30:55.726Z,98227.31
2022-09-15T11:33:28.960Z,98232.81
2022-09-15T11:36:01.146Z,98231.13
2022-09-15T11:38:38.117Z,98225.81
2022-09-15T11:41:17.722Z,98236.06
2022-09-15T11:43:53.633Z,98233.81
2022-09-15T11:46:26.122Z,98236.69
2022-09-15T11:48:59.908Z,98227.56
2022-09-15T11:51:29.300Z,98241.03
2022-09-15T11:54:05.017Z,98226.88
2022-09-15T11:56:36.515Z,98219.31
2022-09-15T11:59:14.558Z,98225.91
2022-09-15T12:01:48.778Z,98221.50
2022-09-15T12:04:19.994Z,98217.25
2022-09-15T12:06:51.561Z,98229.69
2022-09-15T12:09:20.952Z,98227.78
2022-09-15T12:11:49.653Z,98240.41
2022-09-15T12:14:22.545Z,98235.03
2022-09-15T12:16:49.833Z,98239.34
2022-09-15T12:19:25.818Z,98243.38
2022-09-15T12:22:00.089Z,98234.91
2022-09-15T12:24:38.405Z,98240.97
2022-09-15T12:27:05.018Z,98246.16
2022-09-15T12:29:41.186Z,98247.91
2022-09-15T12:32:21.286Z,98249.53
2022-09-15T12:35:02.711Z,98250.34
2022-09-15T12:37:40.070Z,98242.88
2022-09-15T12:40:26.044Z,98235.81
2022-09-15T12:42:53.049Z,98239.00
2022-09-15T12:45:23.092Z,98231.06
2022-09-15T12:47:53.210Z,98244.28
2022-09-15T12:50:27.306Z,98247.16
2022-09-15T12:52:58.127Z,98241.22
2022-09-15T12:55:28.626Z,98251.84
2022-09-15T12:57:57.826Z,98256.91
2022-09-15T13:00:38.015Z,98249.94
2022-09-15T13:03:26.868Z,98254.66
2022-09-15T13:06:14.580Z,98253.84
2022-09-15T13:08:52.458Z,98255.81
2022-09-15T13:11:31.301Z,98244.44
2022-09-15T13:14:10.321Z,98257.88
2022-09-15T13:16:45.750Z,98256.28
2022-09-15T13:19:19.289Z,98269.31
2022-09-15T13:21:52.152Z,98263.41
2022-09-15T13:24:24.231Z,98269.31
2022-09-15T13:26:54.832Z,98270.91
2022-09-15T13:29:22.727Z,98275.25
2022-09-15T13:31:54.929Z,98273.66
2022-09-15T13:35:08.027Z,98266.53
2022-09-15T13:38:13.954Z,98275.56
2022-09-15T13:41:15.441Z,98262.97
2022-09-15T13:44:12.000Z,98270.03
2022-09-15T13:46:53.495Z,98253.88
2022-09-15T13:49:35.189Z,98246.00
2022-09-15T13:52:12.468Z,98245.69
2022-09-15T13:55:08.180Z,98244.88
2022-09-15T14:00:29.639Z,98257.50
2022-09-15T14:02:59.917Z,98242.16
2022-09-15T14:05:29.739Z,98242.19
2022-09-15T14:08:01.279Z,98233.16
2022-09-15T14:10:31.957Z,98239.84
2022-09-15T14:13:00.516Z,98239.03
2022-09-15T14:15:29.719Z,98240.28
2022-09-15T14:17:56.459Z,98240.22
2022-09-15T14:20:27.015Z,98238.69
2022-09-15T14:22:53.797Z,98236.31
2022-09-15T14:25:21.650Z,98237.88
2022-09-15T14:27:50.486Z,98237.13
2022-09-15T14:30:21.045Z,98232.03
2022-09-15T14:32:53.587Z,98239.09
2022-09-15T14:35:24.147Z,98237.53
2022-09-15T14:37:55.796Z,98240.28
2022-09-15T14:40:29.218Z,98246.16
2022-09-15T14:42:56.582Z,98237.88
2022-09-15T14:45:57.853Z,98238.25
2022-09-15T14:48:24.271Z,98241.78
2022-09-15T14:51:00.401Z,98242.63
2022-09-15T14:53:30.236Z,98243.78
2022-09-15T14:56:07.088Z,98254.00
2022-09-15T14:58:37.048Z,98244.94
2022-09-15T15:01:09.163Z,98262.66
2022-09-15T15:03:43.583Z,98255.94
2022-09-15T15:06:30.510Z,98254.78
2022-09-15T15:09:01.112Z,98240.25
2022-09-15T15:11:28.992Z,98242.16
2022-09-15T15:13:56.176Z,98242.84
2022-09-15T15:16:26.369Z,98241.03
2022-09-15T15:18:54.623Z,98232.25
2022-09-15T15:21:34.796Z,98243.53
2022-09-15T15:24:08.551Z,98245.28
2022-09-15T15:26:36.849Z,98244.56
2022-09-15T15:29:07.568Z,98248.91
2022-09-15T15:31:39.078Z,98248.13
2022-09-15T15:34:22.936Z,98250.47
2022-09-15T15:36:49.485Z,98244.16
2022-09-15T15:39:23.964Z,98251.22
2022-09-15T15:42:00.635Z,98256.25
2022-09-15T15:44:28.298Z,98250.75
2022-09-15T15:46:57.260Z,98248.78
2022-09-15T15:49:27.082Z,98243.28
2022-09-15T15:51:54.184Z,98242.50
2022-09-15T15:54:21.096Z,98250.34
2022-09-15T15:56:47.605Z,98246.78
2022-09-15T15:59:15.062Z,98249.94
2022-09-15T16:01:42.256Z,98253.06
2022-09-15T16:04:08.923Z,98250.38
2022-09-15T16:06:36.836Z,98247.63
2022-09-15T16:09:04.733Z,98246.03
2022-09-15T16:11:31.531Z,98246.41
2022-09-15T16:13:58.281Z,98240.53
2022-09-15T16:16:26.445Z,98235.78
2022-09-15T16:18:53.541Z,98231.09
2022-09-15T16:21:31.698Z,98229.09
2022-09-15T16:23:59.543Z,98235.72
2022-09-15T16:26:26.077Z,98240.78
2022-09-15T16:28:52.799Z,98236.47
2022-09-15T16:31:19.468Z,98237.63
2022-09-15T16:33:46.146Z,98230.97
2022-09-15T16:36:14.203Z,98237.97
2022-09-15T16:38:42.662Z,98245.41
2022-09-15T16:41:15.169Z,98225.75
2022-09-15T16:43:42.104Z,98232.75
2022-09-15T16:46:09.730Z,98244.44
2022-09-15T16:48:36.531Z,98241.28
2022-09-15T16:51:27.077Z,98242.44
2022-09-15T16:53:50.413Z,98234.97
2022-09-15T16:56:18.455Z,98229.81
2022-09-15T16:58:45.024Z,98236.84
2022-09-15T17:01:16.485Z,98232.84
2022-09-15T17:03:43.024Z,98239.88
2022-09-15T17:06:12.752Z,98233.97
2022-09-15T17:08:39.307Z,98238.25
2022-09-15T17:11:06.487Z,98243.31
2022-09-15T17:13:34.482Z,98237.41
2022-09-15T17:16:01.736Z,98233.00
2022-09-15T17:18:29.212Z,98234.16
2022-09-15T17:20:56.008Z,98243.50
2022-09-15T17:23:24.905Z,98232.09
2022-09-15T17:25:53.077Z,98236.38
2022-09-15T17:28:21.882Z,98244.56
2022-09-15T17:30:51.923Z,98240.25
2022-09-15T17:33:19.875Z,98240.97
2022-09-15T17:35:47.275Z,98243.22
2022-09-15T17:38:14.689Z,98247.13
2022-09-15T17:40:41.500Z,98241.16
2022-09-15T17:43:13.907Z,98241.50
2022-09-15T17:45:40.675Z,98246.56
2022-09-15T17:48:08.897Z,98244.22
2022-09-15T17:50:36.371Z,98239.88
2022-09-15T17:53:02.983Z,98245.72
2022-09-15T17:55:31.825Z,98239.81
2022-09-15T17:58:00.229Z,98244.09
2022-09-15T18:00:29.693Z,98246.81
2022-09-15T18:02:58.582Z,98240.06
2022-09-15T18:05:29.022Z,98247.47
2022-09-15T18:07:57.312Z,98245.09
2022-09-15T18:10:25.165Z,98252.50
2022-09-15T18:12:55.081Z,98248.06
2022-09-15T18:15:24.579Z,98252.72
2022-09-15T18:17:52.533Z,98248.34
2022-09-15T18:20:23.332Z,98251.88
2022-09-15T18:22:51.449Z,98255.69
2022-09-15T18:25:20.400Z,98252.13
2022-09-15T18:27:46.955Z,98256.75
2022-09-15T18:30:13.605Z,98260.59
2022-09-15T18:32:40.288Z,98261.28
2022-09-15T18:35:08.330Z,98273.75
2022-09-15T18:37:35.388Z,98275.28
2022-09-15T18:40:04.284Z,98283.06
2022-09-15T18:42:31.942Z,98275.66
2022-09-15T18:44:58.856Z,98281.53
2022-09-15T18:47:25.664Z,98292.91
2022-09-15T18:49:52.205Z,98290.19
2022-09-15T18:52:18.723Z,98287.44
2022-09-15T18:54:45.257Z,98288.16
2022-09-15T18:57:13.326Z,98295.91
2022-09-15T18:59:39.866Z,98293.47
2022-09-15T19:02:06.550Z,98300.06
2022-09-15T19:04:37.250Z,98304.31
2022-09-15T19:07:06.450Z,98300.06
2022-09-15T19:09:33.068Z,98305.09
2022-09-15T19:11:59.964Z,98303.09
2022-09-15T19:14:29.023Z,98311.72
2022-09-15T19:16:57.885Z,98311.34
2022-09-15T19:19:25.011Z,98325.03
2022-09-15T19:21:51.656Z,98329.69
2022-09-15T19:24:18.233Z,98323.09
2022-09-15T19:26:45.656Z,98331.66
2022-09-15T19:29:12.848Z,98329.69
2022-09-15T19:31:42.131Z,98331.28
2022-09-15T19:34:08.904Z,98331.28
2022-09-15T19:36:35.624Z,98339.50
2022-09-15T19:39:02.373Z,98330.50
2022-09-15T19:41:29.012Z,98332.44
2022-09-15T19:43:55.523Z,98330.44
2022-09-15T19:46:25.099Z,98330.34
2022-09-15T19:48:53.795Z,98318.56
2022-09-15T19:51:20.878Z,98323.97
2022-09-15T19:53:47.660Z,98326.28
2022-09-15T19:56:16.159Z,98333.63
2022-09-15T19:58:42.915Z,98330.91
2022-09-15T20:01:10.291Z,98330.47
2022-09-15T20:03:37.104Z,98330.81
2022-09-15T20:06:07.735Z,98328.78
2022-09-15T20:08:35.183Z,98329.53
2022-09-15T20:11:04.654Z,98327.06
2022-09-15T20:13:31.545Z,98325.44
2022-09-15T20:16:00.508Z,98323.78
2022-09-15T20:18:27.505Z,98322.94
2022-09-15T20:20:54.716Z,98320.59
2022-09-15T20:23:23.152Z,98321.66
2022-09-15T20:25:56.763Z,98325.53
2022-09-15T20:28:23.667Z,98332.16
2022-09-15T20:31:02.393Z,98333.72
2022-09-15T20:33:29.476Z,98343.47
2022-09-15T20:36:00.448Z,98344.59
2022-09-15T20:38:28.529Z,98347.34
2022-09-15T20:40:55.244Z,98344.97
2022-09-15T20:43:21.889Z,98343.72
2022-09-15T20:45:59.895Z,98353.50
2022-09-15T20:48:27.236Z,98343.31
2022-09-15T20:51:00.316Z,98349.88
2022-09-15T20:53:28.346Z,98346.69
2022-09-15T20:55:55.257Z,98345.84
2022-09-15T20:58:21.853Z,98351.59
2022-09-15T21:00:48.510Z,98349.28
2022-09-15T21:03:15.744Z,98358.19
2022-09-15T21:05:42.909Z,98354.75
2022-09-15T21:08:09.669Z,98351.94
2022-09-15T21:10:38.024Z,98359.78
2022-09-15T21:13:05.275Z,98348.50
2022-09-15T21:15:32.108Z,98354.03
2022-09-15T21:17:58.831Z,98356.34
2022-09-15T21:20:25.340Z,98357.91
2022-09-15T21:22:54.057Z,98356.78
2022-09-15T21:25:30.236Z,98363.00
2022-09-15T21:27:58.229Z,98368.06
2022-09-15T21:30:24.734Z,98360.25
2022-09-15T21:32:51.280Z,98367.69
2022-09-15T21:35:17.766Z,98364.97
2022-09-15T21:37:44.308Z,98362.22
2022-09-15T21:40:11.024Z,98366.53
2022-09-15T21:42:37.540Z,98370.03
2022-09-15T21:45:06.711Z,98372.78
2022-09-15T21:47:33.261Z,98373.56
2022-09-15T21:49:59.940Z,98382.56
2022-09-15T21:52:26.545Z,98378.25
2022-09-15T21:54:53.072Z,98380.56
2022-09-15T21:57:19.710Z,98384.78
2022-09-15T21:59:46.225Z,98379.19
2022-09-15T22:02:14.230Z,98381.41
2022-09-15T22:04:40.763Z,98373.16
2022-09-15T22:07:07.300Z,98376.16
2022-09-15T22:09:33.849Z,98378.44
2022-09-15T22:12:00.663Z,98378.44
2022-09-15T22:14:27.217Z,98373.00
2022-09-15T22:16:53.822Z,98391.69
2022-09-15T22:19:21.943Z,98398.63
2022-09-15T22:21:48.518Z,98393.88
2022-09-15T22:24:15.010Z,98390.00
2022-09-15T22:26:42.624Z,98391.50
2022-09-15T22:29:09.454Z,98384.84
2022-09-15T22:31:36.328Z,98392.16
2022-09-15T22:34:03.419Z,98387.41
2022-09-15T22:36:31.932Z,98384.25
2022-09-15T22:38:59.850Z,98387.69
2022-09-15T22:41:26.345Z,98393.16
2022-09-15T22:43:52.981Z,98394.28
2022-09-15T22:46:19.838Z,98391.56
2022-09-15T22:48:46.638Z,98386.47
2022-09-15T22:51:14.501Z,98396.59
2022-09-15T22:53:42.497Z,98392.72
2022-09-15T22:56:11.591Z,98381.00
2022-09-15T22:58:41.846Z,98381.78
2022-09-15T23:01:10.818Z,98384.88
2022-09-15T23:03:38.216Z,98384.09
2022-09-15T23:06:05.829Z,98379.41
2022-09-15T23:08:33.015Z,98382.94
2022-09-15T23:11:05.895Z,98387.59
2022-09-15T23:13:32.654Z,98377.78
2022-09-15T23:15:59.375Z,98379.34
2022-09-15T23:18:27.990Z,98382.88
2022-09-15T23:20:59.147Z,98384.81
2022-09-15T23:23:26.629Z,98386.75
2022-09-15T23:25:53.273Z,98386.75
2022-09-15T23:28:21.629Z,98385.16
2022-09-15T23:30:51.829Z,98386.75
2022-09-15T23:33:18.817Z,98380.50
2022-09-15T23:35:45.536Z,98382.00
2022-09-15T23:38:12.607Z,98379.63
2022-09-15T23:40:40.768Z,98376.78
2022-09-15T23:43:07.409Z,98386.47
2022-09-15T23:45:35.422Z,98386.75
2022-09-15T23:48:02.585Z,98381.66
2022-09-15T23:50:29.137Z,98377.25
2022-09-15T23:52:55.657Z,98379.13
2022-09-15T23:55:22.454Z,98382.19
2022-09-15T23:57:49.338Z,98387.22
